Main page
METAR-TAF:

METAR-TAF

Airports :

King Khalid International Airport

Riyadh, Saudi Arabia

latitude: 24-56N, longitude: 046-43E, elevation: 614 m

Current weather observation

The report was made 31 minutes ago, at 06:00 UTC
Wind 2 kt from the South/Southeast
Temperature 15°C
Humidity 29%
Pressure 1019 hPa
Visibility: 2000 m
widespread dust

METAR: OERK 230600Z 15002KT 2000 DU NSC 15/M03 Q1019 NOSIG

Time: 09:31 (06:31 UTC)

Forecast

The report was made 1 hour and 31 minutes ago, at 05:00 UTC
Forecast valid from 23 at 06 UTC to 24 at 12 UTC
Wind 13 kt from the West/Southwest
Visibility: 6000 m
Temporary
from 23 at 06 UTC to 23 at 16 UTC
Visibility: 3500 m
widespread dust

TAF: OERK 230500Z 2306/2412 24013KT 6000 NSC TEMPO 2306/2316 3500 DU

Weather observations and forecasts of more than 4000 airports (METAR and TAF reports).

The available stations are represented by yellow and red dots on the map.

Hover mouse over dot to see the name of the station.

Then click to see weather observations and forecasts.

To change the map : click on the green buttons with a black cross to zoom in, on the green button with a dash to zoom out, or on the green arrows for adjacent maps.


METAR-TAF: